createdAt,value
2019-03-09T00:00:35.808Z,10.27
2019-03-09T00:03:04.060Z,9.20
2019-03-09T00:05:32.294Z,9.73
2019-03-09T00:08:00.558Z,8.77
2019-03-09T00:10:28.783Z,9.43
2019-03-09T00:12:57.064Z,9.43
2019-03-09T00:15:25.906Z,9.63
2019-03-09T00:17:54.154Z,9.27
2019-03-09T00:20:22.372Z,9.13
2019-03-09T00:23:01.421Z,9.37
2019-03-09T00:25:43.767Z,9.43
2019-03-09T00:28:16.398Z,8.87
2019-03-09T00:30:48.998Z,9.57
2019-03-09T00:33:36.660Z,9.17
2019-03-09T00:36:06.089Z,9.33
2019-03-09T00:38:34.319Z,8.90
2019-03-09T00:41:02.528Z,8.87
2019-03-09T00:43:30.786Z,9.03
2019-03-09T00:45:59.514Z,9.37
2019-03-09T00:48:27.837Z,9.37
2019-03-09T00:50:56.059Z,9.03
2019-03-09T00:53:24.327Z,9.77
2019-03-09T00:55:52.544Z,8.37
2019-03-09T00:58:20.784Z,9.37
2019-03-09T01:00:49.029Z,9.03
2019-03-09T01:03:17.268Z,9.37
2019-03-09T01:05:45.551Z,9.20
2019-03-09T01:08:13.785Z,8.80
2019-03-09T01:10:42.202Z,8.93
2019-03-09T01:13:10.454Z,8.80
2019-03-09T01:15:38.688Z,9.70
2019-03-09T01:18:06.962Z,11.53
2019-03-09T01:20:35.496Z,9.10
2019-03-09T01:23:04.028Z,9.00
2019-03-09T01:25:32.476Z,9.27
2019-03-09T01:28:00.991Z,8.47
2019-03-09T01:30:29.458Z,8.43
2019-03-09T01:32:57.943Z,8.50
2019-03-09T01:35:26.613Z,11.77
2019-03-09T01:37:55.280Z,8.13
2019-03-09T01:40:23.829Z,8.47
2019-03-09T01:42:52.322Z,8.63
2019-03-09T01:45:20.922Z,8.13
2019-03-09T01:47:49.412Z,8.70
2019-03-09T01:50:17.936Z,8.73
2019-03-09T01:52:46.483Z,8.70
2019-03-09T01:55:14.989Z,8.47
2019-03-09T01:57:43.466Z,8.17
2019-03-09T02:00:17.075Z,8.33
2019-03-09T02:02:45.673Z,8.37
2019-03-09T02:05:14.903Z,8.07
2019-03-09T02:07:43.400Z,8.80
2019-03-09T02:10:13.987Z,8.10
2019-03-09T02:12:42.599Z,8.13
2019-03-09T02:15:15.619Z,8.50
2019-03-09T02:17:44.090Z,8.23
2019-03-09T02:20:16.681Z,8.30
2019-03-09T02:22:45.151Z,9.40
2019-03-09T02:25:13.856Z,8.97
2019-03-09T02:27:42.389Z,8.47
2019-03-09T02:30:16.892Z,8.40
2019-03-09T02:32:45.414Z,10.50
2019-03-09T02:35:17.711Z,8.07
2019-03-09T02:37:47.318Z,8.40
2019-03-09T02:40:22.799Z,7.70
2019-03-09T02:42:50.566Z,8.37
2019-03-09T02:45:27.338Z,8.37
2019-03-09T02:47:55.894Z,8.50
2019-03-09T02:50:24.594Z,8.13
2019-03-09T02:52:53.127Z,8.10
2019-03-09T02:55:21.609Z,8.43
2019-03-09T02:57:50.093Z,8.53
2019-03-09T03:00:19.995Z,8.20
2019-03-09T03:02:55.617Z,8.07
2019-03-09T03:05:24.081Z,8.33
2019-03-09T03:07:52.545Z,7.90
2019-03-09T03:10:21.107Z,7.73
2019-03-09T03:12:49.584Z,8.50
2019-03-09T03:15:30.650Z,7.87
2019-03-09T03:17:58.868Z,7.87
2019-03-09T03:20:27.115Z,8.23
2019-03-09T03:22:55.345Z,7.97
2019-03-09T03:25:23.651Z,8.20
2019-03-09T03:27:52.318Z,7.63
2019-03-09T03:30:20.576Z,8.00
2019-03-09T03:32:48.804Z,7.63
2019-03-09T03:35:17.096Z,8.43
2019-03-09T03:37:45.313Z,8.07
2019-03-09T03:40:13.531Z,8.30
2019-03-09T03:42:41.924Z,7.80
2019-03-09T03:45:11.758Z,9.63
2019-03-09T03:47:40.043Z,8.03
2019-03-09T03:50:08.357Z,7.60
2019-03-09T03:52:36.651Z,7.87
2019-03-09T03:55:06.293Z,8.33
2019-03-09T03:57:34.529Z,7.97
2019-03-09T04:00:03.149Z,7.47
2019-03-09T04:02:31.436Z,7.77
2019-03-09T04:04:59.681Z,8.07
2019-03-09T04:07:47.400Z,7.43
2019-03-09T04:10:15.693Z,8.23
2019-03-09T04:12:43.967Z,7.97
2019-03-09T04:15:12.341Z,7.70
2019-03-09T04:17:40.567Z,8.40
2019-03-09T04:20:10.265Z,7.87
2019-03-09T04:22:38.506Z,7.53
2019-03-09T04:25:07.576Z,8.10
2019-03-09T04:27:35.790Z,7.93
2019-03-09T04:30:05.150Z,8.13
2019-03-09T04:32:33.368Z,7.43
2019-03-09T04:35:01.613Z,7.63
2019-03-09T04:37:29.914Z,8.27
2019-03-09T04:39:58.163Z,7.90
2019-03-09T04:42:26.402Z,7.53
2019-03-09T04:44:54.636Z,7.93
2019-03-09T04:47:22.879Z,7.53
2019-03-09T04:49:51.125Z,7.53
2019-03-09T04:52:19.459Z,7.53
2019-03-09T04:54:47.666Z,7.60
2019-03-09T04:57:15.925Z,7.53
2019-03-09T04:59:44.164Z,7.60
2019-03-09T05:02:12.445Z,7.87
2019-03-09T05:04:41.837Z,8.13
2019-03-09T05:07:10.461Z,7.70
2019-03-09T05:09:58.635Z,7.30
2019-03-09T05:12:26.904Z,7.47
2019-03-09T05:14:55.125Z,7.67
2019-03-09T05:17:23.410Z,7.43
2019-03-09T05:19:51.688Z,7.30
2019-03-09T05:22:19.920Z,7.77
2019-03-09T05:24:49.833Z,7.37
2019-03-09T05:27:18.138Z,7.43
2019-03-09T05:29:46.368Z,7.47
2019-03-09T05:32:14.639Z,7.53
2019-03-09T05:34:42.923Z,7.60
2019-03-09T05:37:11.188Z,7.30
2019-03-09T05:39:39.518Z,7.67
2019-03-09T05:42:07.852Z,7.10
2019-03-09T05:44:36.125Z,7.43
2019-03-09T05:47:04.377Z,7.87
2019-03-09T05:49:32.581Z,7.83
2019-03-09T05:52:05.167Z,7.50
2019-03-09T05:54:33.399Z,7.73
2019-03-09T05:57:01.627Z,7.67
2019-03-09T05:59:29.849Z,7.03
2019-03-09T06:01:58.090Z,6.77
2019-03-09T06:04:26.334Z,7.40
2019-03-09T06:06:54.564Z,7.23
2019-03-09T06:09:22.785Z,7.53
2019-03-09T06:11:51.049Z,7.07
2019-03-09T06:14:19.279Z,7.67
2019-03-09T06:16:47.509Z,7.97
2019-03-09T06:19:15.749Z,7.33
2019-03-09T06:21:43.962Z,8.07
2019-03-09T06:24:12.204Z,8.20
2019-03-09T06:26:40.477Z,7.63
2019-03-09T06:29:08.700Z,7.97
2019-03-09T06:31:36.925Z,7.60
2019-03-09T06:34:05.178Z,7.23
2019-03-09T06:36:40.758Z,7.70
2019-03-09T06:39:09.360Z,7.63
2019-03-09T06:41:39.261Z,7.97
2019-03-09T06:44:07.486Z,7.20
2019-03-09T06:46:36.175Z,8.20
2019-03-09T06:49:04.448Z,7.47
2019-03-09T06:51:32.680Z,7.80
2019-03-09T06:54:00.935Z,8.40
2019-03-09T06:56:29.154Z,7.63
2019-03-09T06:58:57.436Z,7.93
2019-03-09T07:01:25.791Z,8.20
2019-03-09T07:03:54.027Z,7.43
2019-03-09T07:06:22.289Z,7.77
2019-03-09T07:08:50.560Z,7.53
2019-03-09T07:11:18.833Z,7.63
2019-03-09T07:13:52.904Z,7.73
2019-03-09T07:16:16.950Z,7.60
2019-03-09T07:18:45.205Z,7.87
2019-03-09T07:21:13.437Z,7.60
2019-03-09T07:23:41.752Z,7.43
2019-03-09T07:26:09.987Z,7.87
2019-03-09T07:28:38.289Z,7.40
2019-03-09T07:31:06.637Z,7.10
2019-03-09T07:33:34.972Z,7.73
2019-03-09T07:36:03.205Z,7.20
2019-03-09T07:38:31.465Z,6.93
2019-03-09T07:40:59.703Z,7.43
2019-03-09T07:43:28.043Z,7.10
2019-03-09T07:45:56.323Z,7.40
2019-03-09T07:48:30.754Z,7.30
2019-03-09T07:50:59.059Z,7.13
2019-03-09T07:53:27.308Z,7.07
2019-03-09T07:55:55.543Z,7.37
2019-03-09T07:58:23.773Z,7.20
2019-03-09T08:00:52.038Z,7.10
2019-03-09T08:03:20.263Z,7.10
2019-03-09T08:05:48.599Z,7.67
2019-03-09T08:08:16.877Z,7.07
2019-03-09T08:10:45.112Z,6.90
2019-03-09T08:13:13.330Z,6.83
2019-03-09T08:15:41.661Z,7.27
2019-03-09T08:18:09.892Z,7.07
2019-03-09T08:20:38.131Z,7.20
2019-03-09T08:23:06.351Z,7.17
2019-03-09T08:25:34.630Z,6.77
2019-03-09T08:28:02.900Z,7.00
2019-03-09T08:30:31.133Z,7.10
2019-03-09T08:32:59.424Z,6.83
2019-03-09T08:35:27.637Z,6.50
2019-03-09T08:37:55.843Z,6.30
2019-03-09T08:40:24.144Z,6.87
2019-03-09T08:42:52.360Z,6.80
2019-03-09T08:45:21.417Z,6.17
2019-03-09T08:47:52.444Z,6.50
2019-03-09T08:50:21.738Z,6.17
2019-03-09T08:52:49.977Z,5.93
2019-03-09T08:55:18.723Z,6.83
2019-03-09T08:57:46.986Z,7.13
2019-03-09T09:00:16.470Z,7.90
2019-03-09T09:02:44.710Z,10.13
2019-03-09T09:05:13.380Z,6.87
2019-03-09T09:07:41.600Z,6.20
2019-03-09T09:10:10.231Z,7.67
2019-03-09T09:12:38.594Z,10.43
2019-03-09T09:15:08.495Z,7.97
2019-03-09T09:17:36.745Z,7.23
2019-03-09T09:20:06.681Z,7.40
2019-03-09T09:22:34.975Z,7.60
2019-03-09T09:25:03.638Z,7.80
2019-03-09T09:27:31.910Z,7.90
2019-03-09T09:30:00.337Z,12.50
2019-03-09T09:32:28.920Z,6.73
2019-03-09T09:34:57.647Z,8.23
2019-03-09T09:37:26.025Z,7.17
2019-03-09T09:39:54.273Z,8.43
2019-03-09T09:42:22.510Z,16.60
2019-03-09T09:44:50.762Z,15.90
2019-03-09T09:47:19.494Z,16.93
2019-03-09T09:49:47.805Z,18.97
2019-03-09T09:52:16.124Z,15.47
2019-03-09T09:54:44.424Z,13.47
2019-03-09T09:57:12.709Z,13.70
2019-03-09T09:59:40.972Z,13.17
2019-03-09T10:02:09.301Z,10.63
2019-03-09T10:04:37.626Z,13.60
2019-03-09T10:07:05.871Z,13.40
2019-03-09T10:09:34.108Z,11.20
2019-03-09T10:12:02.350Z,10.83
2019-03-09T10:14:30.596Z,13.27
2019-03-09T10:16:58.845Z,10.10
2019-03-09T10:19:27.087Z,9.73
2019-03-09T10:21:55.346Z,9.23
2019-03-09T10:24:23.575Z,11.57
2019-03-09T10:26:51.856Z,9.50
2019-03-09T10:29:20.094Z,10.47
2019-03-09T10:31:48.384Z,9.87
2019-03-09T10:34:16.626Z,10.87
2019-03-09T10:36:44.907Z,7.50
2019-03-09T10:39:13.145Z,7.47
2019-03-09T10:41:41.405Z,6.57
2019-03-09T10:44:09.681Z,7.50
2019-03-09T10:46:37.972Z,8.10
2019-03-09T10:49:06.202Z,8.20
2019-03-09T10:51:34.909Z,5.97
2019-03-09T10:54:03.397Z,6.93
2019-03-09T10:56:31.609Z,7.20
2019-03-09T10:59:00.980Z,6.83
2019-03-09T11:01:29.251Z,8.17
2019-03-09T11:03:57.546Z,5.33
2019-03-09T11:06:25.860Z,6.23
2019-03-09T11:08:54.404Z,5.90
2019-03-09T11:11:22.697Z,7.97
2019-03-09T11:13:52.126Z,5.70
2019-03-09T11:16:20.755Z,6.57
2019-03-09T11:18:49.131Z,5.37
2019-03-09T11:21:17.387Z,6.67
2019-03-09T11:23:45.743Z,6.67
2019-03-09T11:26:14.094Z,5.63
2019-03-09T11:28:42.414Z,5.63
2019-03-09T11:31:11.096Z,5.90
2019-03-09T11:33:39.377Z,5.10
2019-03-09T11:36:07.715Z,4.73
2019-03-09T11:38:35.947Z,5.50
2019-03-09T11:41:04.215Z,4.37
2019-03-09T11:43:32.431Z,4.57
2019-03-09T11:46:00.709Z,4.60
2019-03-09T11:48:28.974Z,3.97
2019-03-09T11:50:57.310Z,4.47
2019-03-09T11:53:25.590Z,4.30
2019-03-09T11:55:53.863Z,4.37
2019-03-09T11:58:22.092Z,4.47
2019-03-09T12:00:50.423Z,4.90
2019-03-09T12:03:18.700Z,4.00
2019-03-09T12:05:46.928Z,4.30
2019-03-09T12:08:15.189Z,4.03
2019-03-09T12:10:43.422Z,3.80
2019-03-09T12:13:11.717Z,4.47
2019-03-09T12:15:39.944Z,4.50
2019-03-09T12:18:08.655Z,4.00
2019-03-09T12:20:36.951Z,4.20
2019-03-09T12:23:09.677Z,3.60
2019-03-09T12:25:37.917Z,4.13
2019-03-09T12:28:06.165Z,3.87
2019-03-09T12:30:34.470Z,3.83
2019-03-09T12:33:02.764Z,4.97
2019-03-09T12:35:30.996Z,4.20
2019-03-09T12:37:59.215Z,4.10
2019-03-09T12:40:27.497Z,4.23
2019-03-09T12:42:55.794Z,3.90
2019-03-09T12:45:24.318Z,4.03
2019-03-09T12:47:52.703Z,3.70
2019-03-09T12:50:21.592Z,4.70
2019-03-09T12:52:49.875Z,3.73
2019-03-09T12:55:18.565Z,3.93
2019-03-09T12:57:46.773Z,3.90
2019-03-09T13:00:18.701Z,3.97
2019-03-09T13:02:46.978Z,3.80
2019-03-09T13:05:16.263Z,4.17
2019-03-09T13:07:44.757Z,4.43
2019-03-09T13:10:13.640Z,4.30
2019-03-09T13:12:42.130Z,4.47
2019-03-09T13:15:10.916Z,4.30
2019-03-09T13:17:39.189Z,4.43
2019-03-09T13:20:09.100Z,4.50
2019-03-09T13:22:37.484Z,4.60
2019-03-09T13:25:06.262Z,5.17
2019-03-09T13:27:34.860Z,5.10
2019-03-09T13:30:05.504Z,7.27
2019-03-09T13:32:33.856Z,5.00
2019-03-09T13:35:02.349Z,5.43
2019-03-09T13:37:30.865Z,5.13
2019-03-09T13:39:59.513Z,5.07
2019-03-09T13:42:27.886Z,5.90
2019-03-09T13:44:56.169Z,5.33
2019-03-09T13:47:24.540Z,5.40
2019-03-09T13:49:52.760Z,5.20
2019-03-09T13:52:21.099Z,6.50
2019-03-09T13:54:50.295Z,6.50
2019-03-09T13:57:18.772Z,5.80
2019-03-09T13:59:47.049Z,5.73
2019-03-09T14:02:15.290Z,7.37
2019-03-09T14:04:43.726Z,6.03
2019-03-09T14:07:12.106Z,5.13
2019-03-09T14:09:40.465Z,5.47
2019-03-09T14:12:08.746Z,6.70
2019-03-09T14:14:37.009Z,6.70
2019-03-09T14:17:05.289Z,6.13
2019-03-09T14:19:33.670Z,6.60
2019-03-09T14:22:01.973Z,8.30
2019-03-09T14:24:30.657Z,16.53
2019-03-09T14:26:58.864Z,24.97
2019-03-09T14:29:27.286Z,25.87
2019-03-09T14:31:55.668Z,22.90
2019-03-09T14:34:23.946Z,22.37
2019-03-09T14:36:53.459Z,19.40
2019-03-09T14:39:21.724Z,19.53
2019-03-09T14:41:51.816Z,18.07
2019-03-09T14:44:20.123Z,17.50
2019-03-09T14:46:48.518Z,19.30
2019-03-09T14:49:16.889Z,21.00
2019-03-09T14:51:45.252Z,17.37
2019-03-09T14:54:13.532Z,16.73
2019-03-09T14:56:41.807Z,18.63
2019-03-09T14:59:10.079Z,17.80
2019-03-09T15:01:38.363Z,14.73
2019-03-09T15:04:08.477Z,13.17
2019-03-09T15:06:36.759Z,14.00
2019-03-09T15:09:05.049Z,12.87
2019-03-09T15:11:34.411Z,13.90
2019-03-09T15:14:02.613Z,11.77
2019-03-09T15:16:30.991Z,13.37
2019-03-09T15:18:59.590Z,13.13
2019-03-09T15:21:27.850Z,10.83
2019-03-09T15:23:56.125Z,10.17
2019-03-09T15:26:25.335Z,11.40
2019-03-09T15:28:54.021Z,11.73
2019-03-09T15:31:22.596Z,14.77
2019-03-09T15:33:52.889Z,13.57
2019-03-09T15:36:20.886Z,12.20
2019-03-09T15:38:49.185Z,15.27
2019-03-09T15:41:17.552Z,11.77
2019-03-09T15:43:46.142Z,14.20
2019-03-09T15:46:14.518Z,11.10
2019-03-09T15:48:43.205Z,14.50
2019-03-09T15:51:11.774Z,14.83
2019-03-09T15:53:40.157Z,11.80
2019-03-09T15:56:08.410Z,12.90
2019-03-09T15:58:37.341Z,12.73
2019-03-09T16:01:05.909Z,11.10
2019-03-09T16:03:36.544Z,14.63
2019-03-09T16:06:04.909Z,12.00
2019-03-09T16:08:33.300Z,14.37
2019-03-09T16:11:01.885Z,11.47
2019-03-09T16:13:30.369Z,11.93
2019-03-09T16:15:58.733Z,13.03
2019-03-09T16:18:27.112Z,11.37
2019-03-09T16:20:55.509Z,13.27
2019-03-09T16:23:23.876Z,13.97
2019-03-09T16:25:52.258Z,12.60
2019-03-09T16:28:20.497Z,11.37
2019-03-09T16:30:48.828Z,13.30
2019-03-09T16:33:17.196Z,12.80
2019-03-09T16:35:45.468Z,13.90
2019-03-09T16:38:13.841Z,14.80
2019-03-09T16:40:42.142Z,12.93
2019-03-09T16:43:10.392Z,14.13
2019-03-09T16:45:38.657Z,14.53
2019-03-09T16:48:06.981Z,13.90
2019-03-09T16:50:35.239Z,19.40
2019-03-09T16:53:03.559Z,9.23
2019-03-09T16:55:31.855Z,10.47
2019-03-09T16:58:00.116Z,13.20
2019-03-09T17:00:28.449Z,9.80
2019-03-09T17:02:56.752Z,10.90
2019-03-09T17:05:24.983Z,11.07
2019-03-09T17:07:53.352Z,11.87
2019-03-09T17:10:21.648Z,10.33
2019-03-09T17:12:49.925Z,12.03
2019-03-09T17:15:25.569Z,9.73
2019-03-09T17:17:55.250Z,10.60
2019-03-09T17:20:23.484Z,12.93
2019-03-09T17:22:51.719Z,12.23
2019-03-09T17:25:20.049Z,12.60
2019-03-09T17:27:48.557Z,16.80
2019-03-09T17:30:20.193Z,13.10
2019-03-09T17:32:48.493Z,14.57
2019-03-09T17:35:16.865Z,13.63
2019-03-09T17:37:46.717Z,13.93
2019-03-09T17:40:18.070Z,11.70
2019-03-09T17:42:46.367Z,12.67
2019-03-09T17:45:16.256Z,13.87
2019-03-09T17:47:44.587Z,12.63
2019-03-09T17:50:14.057Z,14.70
2019-03-09T17:52:42.287Z,13.60
2019-03-09T17:55:11.218Z,13.00
2019-03-09T17:57:39.449Z,14.83
2019-03-09T18:00:22.684Z,13.30
2019-03-09T18:02:51.047Z,15.00
2019-03-09T18:05:19.849Z,16.67
2019-03-09T18:07:48.528Z,15.40
2019-03-09T18:10:18.544Z,13.20
2019-03-09T18:12:46.822Z,15.67
2019-03-09T18:15:15.191Z,13.70
2019-03-09T18:17:43.512Z,12.83
2019-03-09T18:20:11.760Z,12.87
2019-03-09T18:22:40.065Z,12.43
2019-03-09T18:25:08.481Z,12.60
2019-03-09T18:27:37.201Z,11.60
2019-03-09T18:30:07.661Z,14.10
2019-03-09T18:32:35.915Z,12.23
2019-03-09T18:35:05.449Z,11.93
2019-03-09T18:37:33.862Z,11.23
2019-03-09T18:40:02.221Z,11.77
2019-03-09T18:42:30.623Z,11.30
2019-03-09T18:44:58.846Z,12.53
2019-03-09T18:47:27.206Z,11.40
2019-03-09T18:49:55.507Z,11.77
2019-03-09T18:52:23.751Z,11.53
2019-03-09T18:54:52.065Z,10.83
2019-03-09T18:57:20.340Z,12.57
2019-03-09T18:59:49.344Z,10.70
2019-03-09T19:02:18.941Z,11.23
2019-03-09T19:04:47.387Z,10.87
2019-03-09T19:07:15.708Z,10.13
2019-03-09T19:09:44.057Z,10.40
2019-03-09T19:12:12.331Z,10.43
2019-03-09T19:14:41.421Z,10.17
2019-03-09T19:17:09.882Z,10.00
2019-03-09T19:19:38.496Z,10.10
2019-03-09T19:22:07.038Z,9.90
2019-03-09T19:24:35.529Z,9.87
2019-03-09T19:27:04.514Z,9.87
2019-03-09T19:29:32.996Z,9.80
2019-03-09T19:32:01.580Z,9.57
2019-03-09T19:34:51.337Z,9.87
2019-03-09T19:37:19.810Z,9.20
2019-03-09T19:39:48.630Z,11.40
2019-03-09T19:42:17.555Z,8.97
2019-03-09T19:44:46.404Z,9.13
2019-03-09T19:47:15.017Z,10.67
2019-03-09T19:49:43.491Z,8.87
2019-03-09T19:52:12.081Z,8.60
2019-03-09T19:54:40.548Z,8.70
2019-03-09T19:57:09.066Z,8.77
2019-03-09T19:59:37.620Z,8.47
2019-03-09T20:02:06.419Z,9.70
2019-03-09T20:04:34.987Z,8.83
2019-03-09T20:07:03.970Z,8.60
2019-03-09T20:09:32.487Z,8.43
2019-03-09T20:12:00.961Z,8.93
2019-03-09T20:14:29.512Z,8.43
2019-03-09T20:16:58.257Z,8.30
2019-03-09T20:19:26.895Z,8.47
2019-03-09T20:21:55.442Z,8.17
2019-03-09T20:24:24.370Z,7.90
2019-03-09T20:26:52.831Z,8.77
2019-03-09T20:29:21.338Z,8.63
2019-03-09T20:31:49.808Z,8.33
2019-03-09T20:34:18.343Z,9.50
2019-03-09T20:36:46.870Z,8.43
2019-03-09T20:39:15.336Z,8.87
2019-03-09T20:41:44.014Z,8.80
2019-03-09T20:44:12.592Z,8.03
2019-03-09T20:46:42.214Z,8.37
2019-03-09T20:49:11.088Z,9.30
2019-03-09T20:51:39.585Z,8.07
2019-03-09T20:54:08.173Z,8.97
2019-03-09T20:56:36.678Z,8.80
2019-03-09T20:59:05.196Z,8.77
2019-03-09T21:01:34.229Z,8.13
2019-03-09T21:04:02.801Z,7.87
2019-03-09T21:06:31.418Z,8.60
2019-03-09T21:08:59.908Z,8.80
2019-03-09T21:11:29.232Z,8.17
2019-03-09T21:13:58.103Z,8.83
2019-03-09T21:16:28.894Z,8.00
2019-03-09T21:18:56.786Z,8.20
2019-03-09T21:21:25.772Z,8.77
2019-03-09T21:23:54.256Z,8.00
2019-03-09T21:26:22.747Z,8.93
2019-03-09T21:28:51.259Z,7.97
2019-03-09T21:31:19.723Z,8.27
2019-03-09T21:33:48.272Z,8.60
2019-03-09T21:36:16.856Z,7.97
2019-03-09T21:38:45.431Z,7.67
2019-03-09T21:41:13.950Z,8.63
2019-03-09T21:43:43.044Z,8.77
2019-03-09T21:46:11.560Z,11.67
2019-03-09T21:48:40.599Z,11.47
2019-03-09T21:51:09.197Z,11.90
2019-03-09T21:53:37.723Z,13.87
2019-03-09T21:56:06.200Z,12.30
2019-03-09T21:58:34.690Z,12.77
2019-03-09T22:01:03.267Z,13.53
2019-03-09T22:03:31.796Z,12.97
2019-03-09T22:06:05.935Z,12.93
2019-03-09T22:08:30.451Z,13.50
2019-03-09T22:10:58.952Z,14.63
2019-03-09T22:13:27.451Z,13.63
2019-03-09T22:15:55.947Z,14.43
2019-03-09T22:18:24.434Z,14.07
2019-03-09T22:20:52.954Z,14.33
2019-03-09T22:23:21.439Z,15.30
2019-03-09T22:25:49.964Z,16.30
2019-03-09T22:28:18.528Z,15.17
2019-03-09T22:30:47.129Z,16.93
2019-03-09T22:33:15.610Z,15.73
2019-03-09T22:35:44.211Z,16.10
2019-03-09T22:38:14.943Z,16.53
2019-03-09T22:40:42.875Z,16.20
2019-03-09T22:43:11.349Z,15.67
2019-03-09T22:45:39.923Z,16.40
2019-03-09T22:48:08.468Z,16.67
2019-03-09T22:50:36.994Z,18.07
2019-03-09T22:53:05.531Z,17.43
2019-03-09T22:55:34.052Z,17.40
2019-03-09T22:58:02.593Z,18.60
2019-03-09T23:00:31.577Z,16.97
2019-03-09T23:03:00.107Z,16.70
2019-03-09T23:05:28.579Z,16.77
2019-03-09T23:07:57.092Z,18.17
2019-03-09T23:10:27.206Z,17.83
2019-03-09T23:12:55.679Z,17.37
2019-03-09T23:15:24.224Z,17.73
2019-03-09T23:17:52.811Z,18.30
2019-03-09T23:20:21.343Z,17.47
2019-03-09T23:22:49.804Z,18.37
2019-03-09T23:25:18.327Z,19.70
2019-03-09T23:27:46.798Z,16.70
2019-03-09T23:30:20.827Z,18.63
2019-03-09T23:32:49.297Z,17.17
2019-03-09T23:35:18.009Z,20.27
2019-03-09T23:37:47.316Z,17.07
2019-03-09T23:40:21.245Z,18.83
2019-03-09T23:42:49.801Z,16.07
2019-03-09T23:45:20.973Z,15.97
2019-03-09T23:47:50.546Z,15.20
2019-03-09T23:50:19.054Z,16.77
2019-03-09T23:52:47.648Z,14.57
2019-03-09T23:55:21.842Z,15.47
2019-03-09T23:57:46.945Z,14.00
